Time;durP1;ratioP1;P1;durP2;ratioP2;P2;SDS_P1;SDS_P2;PMS_P1;PMS_P2;Temp;Humidity;BMP_temperature;BMP_pressure;BME280_temperature;BME280_humidity;BME280_pressure;Samples;Min_cycle;Max_cycle;Signal;HPM_P1;HPM_P2
2020/12/23 00:00:53;;;;;;;28.85;12.68;;;11.70;99.90;;;;;;5098100;28;20076;-64
2020/12/23 00:03:19;;;;;;;23.30;13.80;;;11.70;99.90;;;;;;5096135;28;20058;-64
2020/12/23 00:05:45;;;;;;;27.63;13.85;;;11.70;99.90;;;;;;5102689;28;20478;-64
2020/12/23 00:08:10;;;;;;;24.13;12.27;;;11.70;99.90;;;;;;5105181;28;20016;-64
2020/12/23 00:10:36;;;;;;;15.85;10.85;;;11.70;99.90;;;;;;5087927;28;20036;-64
2020/12/23 00:13:01;;;;;;;22.73;11.73;;;11.80;99.90;;;;;;5090372;28;20028;-62
2020/12/23 00:15:27;;;;;;;28.27;12.48;;;11.80;99.90;;;;;;5094482;28;20024;-64
2020/12/23 00:17:52;;;;;;;28.15;13.90;;;11.80;99.90;;;;;;5104222;28;20028;-64
2020/12/23 00:20:18;;;;;;;26.65;12.98;;;11.80;99.90;;;;;;5093490;28;20019;-63
2020/12/23 00:22:44;;;;;;;22.23;13.10;;;11.80;99.90;;;;;;5101807;28;20015;-64
2020/12/23 00:25:09;;;;;;;25.13;13.80;;;11.80;99.90;;;;;;5095496;28;20054;-64
2020/12/23 00:27:35;;;;;;;22.95;13.85;;;11.80;99.90;;;;;;5104156;28;20390;-64
2020/12/23 00:30:00;;;;;;;23.42;13.00;;;11.80;99.90;;;;;;5088353;28;20071;-64
2020/12/23 00:32:29;;;;;;;18.73;12.18;;;11.70;99.90;;;;;;5105448;28;20119;-64
2020/12/23 00:34:55;;;;;;;26.63;15.07;;;11.70;99.90;;;;;;5098428;28;20080;-63
2020/12/23 00:37:20;;;;;;;25.10;14.90;;;11.80;99.90;;;;;;5089488;28;20021;-64
2020/12/23 00:39:46;;;;;;;27.45;14.98;;;11.80;99.90;;;;;;5093770;28;20036;-63
2020/12/23 00:42:12;;;;;;;29.80;15.05;;;11.70;99.90;;;;;;5104146;28;20035;-64
2020/12/23 00:44:37;;;;;;;22.92;12.43;;;11.70;99.90;;;;;;5098808;28;20021;-64
2020/12/23 00:47:03;;;;;;;17.73;11.68;;;11.70;99.90;;;;;;5092260;28;20490;-63
2020/12/23 00:49:28;;;;;;;25.95;14.20;;;11.70;99.90;;;;;;5107697;28;20024;-64
2020/12/23 00:51:54;;;;;;;29.42;15.10;;;11.70;99.90;;;;;;5108618;28;20528;-64
2020/12/23 00:54:19;;;;;;;22.33;13.43;;;11.60;99.90;;;;;;5108873;28;20065;-64
2020/12/23 00:56:45;;;;;;;18.10;11.40;;;11.60;99.90;;;;;;5074412;28;20041;-62
2020/12/23 00:59:11;;;;;;;21.27;13.55;;;11.60;99.90;;;;;;5068207;28;20040;-64
2020/12/23 01:01:37;;;;;;;26.65;15.57;;;11.60;99.90;;;;;;5083138;28;20479;-64
2020/12/23 01:04:02;;;;;;;25.77;15.05;;;11.60;99.90;;;;;;5088367;28;20111;-64
2020/12/23 01:06:28;;;;;;;28.17;16.45;;;11.60;99.90;;;;;;5084630;28;20039;-64
2020/12/23 01:08:54;;;;;;;38.50;17.25;;;11.50;99.90;;;;;;5088560;28;20819;-63
2020/12/23 01:11:19;;;;;;;39.60;18.50;;;11.50;99.90;;;;;;5087973;28;20483;-63
2020/12/23 01:13:45;;;;;;;32.53;17.92;;;11.40;99.90;;;;;;5088206;28;20062;-63
2020/12/23 01:16:10;;;;;;;34.28;18.02;;;11.40;99.90;;;;;;5076852;28;20112;-64
2020/12/23 01:18:36;;;;;;;32.92;18.02;;;11.40;99.90;;;;;;5068283;28;20021;-65
2020/12/23 01:21:01;;;;;;;29.48;18.08;;;11.40;99.90;;;;;;5068064;28;20068;-63
2020/12/23 01:23:27;;;;;;;38.20;19.55;;;11.40;99.90;;;;;;5067953;28;20092;-64
2020/12/23 01:25:55;;;;;;;39.20;20.70;;;11.40;99.90;;;;;;5074525;28;20028;-63
2020/12/23 01:28:21;;;;;;;45.80;20.60;;;11.40;99.90;;;;;;5076420;28;20021;-64
2020/12/23 01:30:47;;;;;;;45.00;21.63;;;11.30;99.90;;;;;;5072016;28;20071;-64
2020/12/23 01:33:12;;;;;;;37.80;19.40;;;11.30;99.90;;;;;;5071661;28;20068;-64
2020/12/23 01:35:38;;;;;;;39.15;20.70;;;11.30;99.90;;;;;;5074445;28;20029;-62
2020/12/23 01:38:04;;;;;;;41.25;20.92;;;11.30;99.90;;;;;;5071603;28;20695;-63
2020/12/23 01:40:30;;;;;;;40.40;20.00;;;11.30;99.90;;;;;;5092146;28;20047;-63
2020/12/23 01:42:56;;;;;;;42.80;21.35;;;11.30;99.90;;;;;;5092021;28;20232;-63
2020/12/23 01:45:21;;;;;;;34.35;18.50;;;11.20;99.90;;;;;;5088951;28;20881;-64
2020/12/23 01:47:47;;;;;;;26.60;17.10;;;11.20;99.90;;;;;;5071421;28;20040;-64
2020/12/23 01:50:13;;;;;;;32.35;19.02;;;11.30;99.90;;;;;;5071005;28;20039;-63
2020/12/23 01:52:39;;;;;;;31.67;18.13;;;11.30;99.90;;;;;;5071431;28;20036;-64
2020/12/23 01:55:09;;;;;;;33.22;18.83;;;11.40;99.90;;;;;;5083236;28;20027;-63
2020/12/23 01:57:35;;;;;;;26.67;17.38;;;11.30;99.90;;;;;;5091475;28;20062;-64
2020/12/23 02:00:03;;;;;;;27.92;16.75;;;11.40;99.90;;;;;;5089899;28;20016;-64
2020/12/23 02:02:33;;;;;;;26.50;14.32;;;11.40;99.90;;;;;;5071490;28;20121;-63
2020/12/23 02:05:00;;;;;;;25.40;14.73;;;11.40;99.90;;;;;;5081723;28;20103;-63
2020/12/23 02:07:27;;;;;;;25.83;14.25;;;11.40;99.90;;;;;;5091149;28;20032;-63
2020/12/23 02:09:55;;;;;;;30.08;14.40;;;11.40;99.90;;;;;;5092007;28;20024;-63
2020/12/23 02:12:21;;;;;;;24.17;13.55;;;11.40;99.90;;;;;;5091002;28;20094;-63
2020/12/23 02:14:48;;;;;;;17.88;11.27;;;11.40;99.90;;;;;;5080797;28;20425;-63
2020/12/23 02:17:13;;;;;;;20.85;12.70;;;11.40;99.90;;;;;;5071504;28;20376;-63
2020/12/23 02:19:51;;;;;;;19.92;11.00;;;11.40;99.90;;;;;;5071066;28;20028;-64
2020/12/23 02:22:21;;;;;;;17.73;11.80;;;11.40;99.90;;;;;;5071214;28;20036;-62
2020/12/23 02:24:49;;;;;;;19.98;11.02;;;11.40;99.90;;;;;;5081379;28;20490;-63
2020/12/23 02:27:15;;;;;;;16.60;10.77;;;11.40;99.90;;;;;;5090545;28;20028;-65
2020/12/23 02:29:42;;;;;;;19.52;12.23;;;11.40;99.90;;;;;;5091592;28;20088;-64
2020/12/23 02:32:08;;;;;;;13.90;9.23;;;11.40;99.90;;;;;;5090006;28;20035;-64
2020/12/23 02:34:34;;;;;;;17.48;10.05;;;11.40;99.90;;;;;;5080612;28;20025;-64
2020/12/23 02:36:59;;;;;;;15.20;8.85;;;11.40;99.90;;;;;;5070403;28;20051;-63
2020/12/23 02:39:25;;;;;;;14.38;7.53;;;11.40;99.90;;;;;;5070735;28;20039;-63
2020/12/23 02:41:57;;;;;;;17.30;9.95;;;11.40;99.90;;;;;;5075896;28;20051;-64
2020/12/23 02:44:23;;;;;;;18.20;8.52;;;11.40;99.90;;;;;;5088030;28;20059;-64
2020/12/23 02:46:57;;;;;;;17.20;10.25;;;11.40;99.90;;;;;;5073052;28;20068;-64
2020/12/23 02:49:23;;;;;;;19.90;10.93;;;11.30;99.90;;;;;;5070248;28;20032;-64
2020/12/23 02:51:49;;;;;;;16.00;8.85;;;11.30;99.90;;;;;;5070359;28;20079;-63
2020/12/23 02:54:15;;;;;;;18.70;9.73;;;11.20;99.90;;;;;;5077784;28;20457;-63
2020/12/23 02:56:40;;;;;;;14.63;9.00;;;11.20;99.90;;;;;;5076642;28;20091;-63
2020/12/23 02:59:06;;;;;;;14.35;9.23;;;11.20;99.90;;;;;;5090447;28;20020;-64
2020/12/23 03:01:32;;;;;;;19.63;9.88;;;11.20;99.90;;;;;;5089024;28;20050;-64
2020/12/23 03:03:57;;;;;;;17.77;8.45;;;11.20;99.90;;;;;;5088825;28;20639;-63
2020/12/23 03:06:23;;;;;;;11.57;7.82;;;11.10;99.90;;;;;;5089965;28;20035;-63
2020/12/23 03:08:48;;;;;;;13.60;7.55;;;11.10;99.90;;;;;;5090030;28;20028;-63
2020/12/23 03:11:14;;;;;;;16.35;9.07;;;11.10;99.90;;;;;;5079186;28;20495;-63
2020/12/23 03:13:39;;;;;;;13.55;8.07;;;11.10;99.90;;;;;;5080606;28;20024;-64
2020/12/23 03:16:05;;;;;;;15.25;8.55;;;11.10;99.90;;;;;;5088893;28;20044;-64
2020/12/23 03:18:31;;;;;;;14.80;6.82;;;11.10;99.90;;;;;;5089975;28;20065;-64
2020/12/23 03:20:57;;;;;;;11.45;6.72;;;11.10;99.90;;;;;;5081071;28;20060;-63
2020/12/23 03:23:22;;;;;;;8.57;5.68;;;11.20;99.90;;;;;;5075377;28;20556;-64
2020/12/23 03:25:47;;;;;;;8.73;5.18;;;11.20;99.90;;;;;;5089706;28;20036;-64
2020/12/23 03:28:13;;;;;;;8.02;3.70;;;11.20;99.90;;;;;;5089741;28;20043;-64
2020/12/23 03:30:39;;;;;;;9.45;4.45;;;11.30;99.90;;;;;;5083641;28;20039;-64
2020/12/23 03:33:04;;;;;;;14.65;3.63;;;11.30;99.90;;;;;;5077006;28;20028;-62
2020/12/23 03:35:30;;;;;;;3.55;2.75;;;11.30;99.90;;;;;;5071909;28;20059;-63
2020/12/23 03:37:55;;;;;;;6.40;2.53;;;11.40;99.90;;;;;;5068944;28;20048;-62
2020/12/23 03:40:20;;;;;;;4.47;2.20;;;11.40;99.90;;;;;;5069410;28;20090;-63
2020/12/23 03:42:46;;;;;;;3.42;2.33;;;11.40;99.90;;;;;;5069671;28;20039;-63
2020/12/23 03:45:12;;;;;;;2.67;1.58;;;11.40;99.90;;;;;;5086426;28;20028;-62
2020/12/23 03:47:37;;;;;;;4.43;1.42;;;11.50;99.90;;;;;;5089646;28;20036;-63
2020/12/23 03:50:04;;;;;;;4.10;1.73;;;11.50;99.90;;;;;;5088012;28;20043;-61
2020/12/23 03:52:29;;;;;;;3.70;1.80;;;11.50;99.90;;;;;;5073265;28;20055;-63
2020/12/23 03:54:55;;;;;;;8.95;1.65;;;11.50;99.90;;;;;;5089047;28;20528;-63
2020/12/23 03:57:21;;;;;;;5.25;1.60;;;11.50;99.90;;;;;;5089511;28;20077;-63
2020/12/23 03:59:46;;;;;;;5.43;1.67;;;11.50;99.90;;;;;;5089345;28;20567;-62
2020/12/23 04:02:11;;;;;;;5.32;1.80;;;11.50;99.90;;;;;;5071797;28;20028;-62
2020/12/23 04:04:37;;;;;;;2.15;1.25;;;11.50;99.90;;;;;;5068941;28;20100;-63
2020/12/23 04:07:02;;;;;;;4.68;1.60;;;11.50;99.90;;;;;;5068972;28;20059;-60
2020/12/23 04:09:28;;;;;;;36.50;3.85;;;11.60;99.90;;;;;;5067316;28;20581;-63
2020/12/23 04:11:53;;;;;;;6.18;2.28;;;11.60;99.90;;;;;;5078743;28;20085;-60
2020/12/23 04:14:20;;;;;;;5.30;2.42;;;11.60;99.90;;;;;;5088221;28;20036;-61
2020/12/23 04:16:45;;;;;;;3.13;1.55;;;11.60;99.90;;;;;;5088268;28;20114;-62
2020/12/23 04:19:11;;;;;;;4.90;2.70;;;11.60;99.90;;;;;;5089686;28;20115;-63
2020/12/23 04:21:36;;;;;;;16.20;2.63;;;11.60;99.90;;;;;;5084861;28;20609;-61
2020/12/23 04:24:02;;;;;;;3.22;2.40;;;11.60;99.90;;;;;;5088609;28;20456;-62
2020/12/23 04:26:27;;;;;;;4.43;3.13;;;11.60;99.90;;;;;;5088281;28;20562;-61
2020/12/23 04:28:53;;;;;;;5.55;2.40;;;11.50;99.90;;;;;;5089792;28;20080;-62
2020/12/23 04:31:19;;;;;;;3.75;2.40;;;11.50;99.90;;;;;;5084308;28;20039;-61
2020/12/23 04:33:44;;;;;;;4.10;2.42;;;11.50;99.90;;;;;;5073006;28;20036;-64
2020/12/23 04:36:10;;;;;;;4.40;2.40;;;11.50;99.90;;;;;;5070244;28;20032;-64
2020/12/23 04:38:35;;;;;;;4.75;2.40;;;11.50;99.90;;;;;;5072488;28;20028;-63
2020/12/23 04:41:01;;;;;;;4.47;2.63;;;11.50;99.90;;;;;;5087179;28;20032;-64
2020/12/23 04:43:27;;;;;;;3.28;2.22;;;11.50;99.90;;;;;;5088843;28;20028;-64
2020/12/23 04:45:53;;;;;;;4.05;2.30;;;11.50;99.90;;;;;;5079156;28;20380;-64
2020/12/23 04:48:24;;;;;;;4.47;1.67;;;11.50;99.90;;;;;;5078125;28;20129;-64
2020/12/23 04:50:54;;;;;;;4.95;1.80;;;11.50;99.90;;;;;;5071385;28;20452;-64
2020/12/23 04:53:21;;;;;;;4.65;1.52;;;11.50;99.90;;;;;;5068399;28;20603;-64
2020/12/23 04:55:47;;;;;;;7.65;2.05;;;11.50;99.90;;;;;;5068093;28;20032;-61
2020/12/23 04:58:13;;;;;;;2.58;1.23;;;11.50;99.90;;;;;;5085772;28;20052;-64
2020/12/23 05:00:38;;;;;;;2.30;1.50;;;11.50;99.90;;;;;;5087239;28;20415;-64
2020/12/23 05:03:04;;;;;;;2.95;1.48;;;11.50;99.90;;;;;;5087731;28;20089;-63
2020/12/23 05:05:29;;;;;;;3.17;1.50;;;11.50;99.90;;;;;;5083899;28;20101;-62
2020/12/23 05:07:55;;;;;;;5.45;2.00;;;11.50;99.90;;;;;;5072199;28;20438;-63
2020/12/23 05:10:21;;;;;;;5.15;2.00;;;11.50;99.90;;;;;;5072577;28;20038;-63
2020/12/23 05:12:47;;;;;;;4.22;2.10;;;11.50;99.90;;;;;;5071936;28;20036;-62
2020/12/23 05:15:12;;;;;;;6.13;1.95;;;11.50;99.90;;;;;;5079943;28;20082;-62
2020/12/23 05:17:44;;;;;;;4.53;2.40;;;11.50;99.90;;;;;;5092454;28;20461;-62
2020/12/23 05:20:10;;;;;;;3.45;2.80;;;11.50;99.90;;;;;;5090208;28;20024;-62
2020/12/23 05:22:36;;;;;;;2.70;1.70;;;11.50;99.90;;;;;;5072167;28;20024;-61
2020/12/23 05:25:03;;;;;;;3.70;2.30;;;11.50;99.90;;;;;;5074512;28;20120;-62
2020/12/23 05:27:32;;;;;;;5.43;2.85;;;11.50;99.90;;;;;;5075590;28;20039;-62
2020/12/23 05:30:01;;;;;;;3.28;1.90;;;11.50;99.90;;;;;;5073306;28;20049;-62
2020/12/23 05:32:26;;;;;;;6.30;3.30;;;11.50;99.90;;;;;;5091931;28;20115;-63
2020/12/23 05:34:53;;;;;;;3.08;1.75;;;11.50;99.90;;;;;;5091600;28;20123;-62
2020/12/23 05:37:20;;;;;;;3.47;1.80;;;11.60;99.90;;;;;;5088775;28;20036;-62
2020/12/23 05:39:46;;;;;;;5.60;1.88;;;11.60;99.90;;;;;;5075023;28;20028;-63
2020/12/23 05:42:14;;;;;;;2.05;1.85;;;11.60;99.90;;;;;;5071113;28;20033;-63
2020/12/23 05:44:40;;;;;;;2.60;2.03;;;11.60;99.90;;;;;;5071232;28;20029;-62
2020/12/23 05:47:06;;;;;;;5.05;2.22;;;11.60;99.90;;;;;;5072773;28;20058;-63
2020/12/23 05:49:38;;;;;;;6.00;2.67;;;11.60;99.90;;;;;;5071895;28;20706;-63
2020/12/23 05:52:04;;;;;;;5.28;2.25;;;11.60;99.90;;;;;;5079707;28;20434;-63
2020/12/23 05:54:30;;;;;;;3.78;2.80;;;11.60;99.90;;;;;;5070960;28;20025;-62
2020/12/23 05:56:55;;;;;;;7.15;2.10;;;11.50;99.90;;;;;;5089255;28;20039;-63
2020/12/23 05:59:21;;;;;;;3.65;2.65;;;11.40;99.90;;;;;;5087531;28;20021;-62
2020/12/23 06:01:49;;;;;;;4.32;2.92;;;11.40;99.90;;;;;;5072286;28;20093;-63
2020/12/23 06:04:15;;;;;;;5.80;2.40;;;11.40;99.90;;;;;;5070536;28;20039;-62
2020/12/23 06:06:46;;;;;;;4.60;2.50;;;11.40;99.90;;;;;;5085574;28;20768;-63
2020/12/23 06:09:15;;;;;;;9.85;3.20;;;11.40;99.90;;;;;;5091425;28;20372;-62
2020/12/23 06:11:44;;;;;;;4.15;2.75;;;11.50;99.90;;;;;;5091363;28;20107;-63
2020/12/23 06:14:21;;;;;;;6.65;4.28;;;11.40;99.90;;;;;;5090785;28;20032;-63
2020/12/23 06:16:49;;;;;;;10.85;3.78;;;11.40;99.90;;;;;;5074088;28;20569;-63
2020/12/23 06:19:25;;;;;;;8.48;3.53;;;11.40;99.90;;;;;;5071101;28;20537;-63
2020/12/23 06:21:53;;;;;;;7.72;3.67;;;11.30;99.90;;;;;;5070944;28;20031;-62
2020/12/23 06:24:19;;;;;;;11.50;6.93;;;11.30;99.90;;;;;;5079921;28;20039;-63
2020/12/23 06:27:05;;;;;;;6.85;4.10;;;11.30;99.90;;;;;;5089641;28;20028;-60
2020/12/23 06:29:37;;;;;;;10.95;5.07;;;11.30;99.90;;;;;;5091081;28;20391;-62
2020/12/23 06:32:03;;;;;;;8.88;5.93;;;11.30;99.90;;;;;;5090828;28;20032;-61
2020/12/23 06:34:31;;;;;;;10.20;5.43;;;11.40;99.90;;;;;;5089690;28;20039;-62
2020/12/23 06:36:57;;;;;;;10.68;5.20;;;11.40;99.90;;;;;;5091264;28;20032;-62
2020/12/23 06:39:31;;;;;;;13.13;6.07;;;11.30;99.90;;;;;;5091401;28;20060;-63
2020/12/23 06:41:59;;;;;;;13.75;7.40;;;11.30;99.90;;;;;;5074644;28;20111;-63
2020/12/23 06:44:46;;;;;;;18.52;7.78;;;11.30;99.90;;;;;;5071325;28;20384;-64
2020/12/23 06:47:18;;;;;;;15.50;7.82;;;11.30;99.90;;;;;;5075147;28;20043;-62
2020/12/23 06:49:44;;;;;;;16.45;8.15;;;11.30;99.90;;;;;;5085330;28;20055;-62
2020/12/23 06:52:21;;;;;;;15.77;7.63;;;11.30;99.90;;;;;;5089829;28;20045;-62
2020/12/23 06:54:54;;;;;;;18.38;9.07;;;11.40;99.90;;;;;;5069912;28;20025;-62
2020/12/23 06:57:39;;;;;;;16.00;7.60;;;11.40;99.90;;;;;;5070075;28;20094;-63
2020/12/23 07:00:12;;;;;;;18.35;8.50;;;11.40;99.90;;;;;;5071210;28;20020;-62
2020/12/23 07:02:40;;;;;;;23.05;8.50;;;11.40;99.90;;;;;;5089890;28;20383;-63
2020/12/23 07:05:09;;;;;;;18.30;8.25;;;11.40;99.90;;;;;;5089768;28;20048;-62
2020/12/23 07:07:40;;;;;;;19.83;8.32;;;11.30;99.90;;;;;;5090140;28;20059;-62
2020/12/23 07:10:17;;;;;;;21.60;7.88;;;11.30;99.90;;;;;;5088719;28;20098;-62
2020/12/23 07:12:54;;;;;;;16.02;8.02;;;11.30;99.90;;;;;;5069679;28;20043;-62
2020/12/23 07:15:22;;;;;;;20.80;8.88;;;11.40;99.90;;;;;;5073092;28;20118;-62
2020/12/23 07:17:55;;;;;;;26.15;9.35;;;11.30;99.90;;;;;;5090283;28;20395;-63
2020/12/23 07:20:25;;;;;;;19.45;8.05;;;11.40;99.90;;;;;;5086469;28;20050;-62
2020/12/23 07:22:53;;;;;;;15.48;7.13;;;11.30;99.90;;;;;;5071113;28;20020;-63
2020/12/23 07:25:23;;;;;;;24.33;7.78;;;11.40;99.90;;;;;;5085865;28;20033;-62
2020/12/23 07:27:54;;;;;;;17.58;7.80;;;11.40;99.90;;;;;;5110044;28;20081;-61
2020/12/23 07:30:20;;;;;;;19.60;8.90;;;11.50;99.90;;;;;;5091924;28;20024;-63
2020/12/23 07:33:00;;;;;;;24.10;8.10;;;11.40;99.90;;;;;;5105762;28;20038;-63
2020/12/23 07:35:26;;;;;;;15.13;6.80;;;11.40;99.90;;;;;;5085555;28;20042;-62
2020/12/23 07:37:57;;;;;;;13.82;7.55;;;11.40;99.90;;;;;;5110015;28;20027;-60
2020/12/23 07:40:23;;;;;;;16.98;7.80;;;11.40;99.90;;;;;;5072718;28;20025;-62
2020/12/23 07:42:49;;;;;;;22.10;9.60;;;11.50;99.90;;;;;;5069276;28;20031;-61
2020/12/23 07:45:19;;;;;;;18.23;8.65;;;11.40;99.90;;;;;;5082731;28;20020;-61
2020/12/23 07:47:53;;;;;;;15.55;7.20;;;11.50;99.90;;;;;;5074839;28;20154;-58
2020/12/23 07:50:19;;;;;;;21.23;8.52;;;11.50;99.90;;;;;;5077311;28;20020;-61
2020/12/23 07:52:45;;;;;;;20.33;7.88;;;11.50;99.90;;;;;;5075087;28;20020;-62
2020/12/23 07:55:15;;;;;;;19.60;8.55;;;11.50;99.90;;;;;;5069149;28;20115;-59
2020/12/23 07:57:41;;;;;;;18.42;8.13;;;11.50;99.90;;;;;;5080572;28;20551;-61
2020/12/23 08:00:11;;;;;;;15.18;7.57;;;11.40;99.90;;;;;;5082076;28;20039;-61
2020/12/23 08:02:37;;;;;;;12.00;6.78;;;11.40;99.90;;;;;;5085810;28;20498;-62
2020/12/23 08:05:04;;;;;;;17.48;8.50;;;11.40;99.90;;;;;;5087210;28;20028;-62
2020/12/23 08:07:30;;;;;;;11.75;6.53;;;11.40;99.90;;;;;;5093708;28;20028;-60
2020/12/23 08:09:55;;;;;;;14.48;6.80;;;11.40;99.90;;;;;;5103273;28;20118;-60
2020/12/23 08:12:21;;;;;;;12.70;6.88;;;11.40;99.90;;;;;;5083776;28;20115;-57
2020/12/23 08:14:49;;;;;;;20.55;7.30;;;11.40;99.90;;;;;;5083983;28;20038;-60
2020/12/23 08:17:24;;;;;;;16.83;7.40;;;11.40;99.90;;;;;;5080879;28;20486;-62
2020/12/23 08:20:01;;;;;;;22.52;7.00;;;11.30;99.90;;;;;;5075832;28;20024;-60
2020/12/23 08:22:27;;;;;;;15.98;7.90;;;11.30;99.90;;;;;;5068993;28;20024;-60
2020/12/23 08:25:04;;;;;;;15.60;7.53;;;11.30;99.90;;;;;;5072621;28;20032;-61
2020/12/23 08:27:30;;;;;;;16.02;8.13;;;11.20;99.90;;;;;;5068701;28;20013;-60
2020/12/23 08:29:56;;;;;;;17.90;8.52;;;11.20;99.90;;;;;;5069333;28;20032;-61
2020/12/23 08:32:28;;;;;;;17.95;7.40;;;11.20;99.90;;;;;;5069919;28;20161;-61
2020/12/23 08:34:58;;;;;;;13.93;6.43;;;11.30;99.90;;;;;;5072668;28;20824;-61
2020/12/23 08:37:24;;;;;;;18.17;8.27;;;11.30;99.90;;;;;;5071848;28;20572;-61
2020/12/23 08:39:59;;;;;;;19.17;8.02;;;11.30;99.90;;;;;;5075153;28;20028;-61
2020/12/23 08:42:25;;;;;;;21.80;8.40;;;11.30;99.90;;;;;;5079117;28;20070;-61
2020/12/23 08:44:56;;;;;;;14.18;7.15;;;11.30;99.90;;;;;;5083429;28;20021;-62
2020/12/23 08:47:33;;;;;;;18.13;8.10;;;11.30;99.90;;;;;;5080633;28;20044;-60
2020/12/23 08:50:00;;;;;;;20.98;8.00;;;11.20;99.90;;;;;;5087087;28;20055;-61
2020/12/23 08:52:26;;;;;;;23.20;8.40;;;11.30;99.90;;;;;;5087800;28;20479;-61
2020/12/23 08:54:53;;;;;;;12.65;6.63;;;11.20;99.90;;;;;;5078955;28;20127;-60
2020/12/23 08:57:27;;;;;;;16.05;7.78;;;11.30;99.90;;;;;;5069664;28;20083;-60
2020/12/23 08:59:54;;;;;;;15.55;7.95;;;11.30;99.90;;;;;;5081834;28;20036;-61
2020/12/23 09:02:20;;;;;;;17.67;7.93;;;11.30;99.90;;;;;;5082122;28;20028;-61
2020/12/23 09:04:45;;;;;;;12.38;6.72;;;11.30;99.90;;;;;;5070295;28;20426;-59
2020/12/23 09:07:19;;;;;;;14.60;6.82;;;11.30;99.90;;;;;;5079794;28;20111;-63
2020/12/23 09:09:44;;;;;;;11.77;7.30;;;11.40;99.90;;;;;;5076994;28;20024;-61
2020/12/23 09:12:19;;;;;;;11.02;6.53;;;11.40;99.90;;;;;;5077824;28;20043;-61
2020/12/23 09:14:44;;;;;;;9.25;6.00;;;11.40;99.90;;;;;;5075265;28;20115;-62
2020/12/23 09:17:19;;;;;;;12.40;6.68;;;11.50;99.90;;;;;;5074744;28;20040;-59
2020/12/23 09:19:49;;;;;;;11.50;6.93;;;11.60;99.90;;;;;;5077379;28;20028;-61
2020/12/23 09:22:38;;;;;;;11.98;6.07;;;11.60;99.90;;;;;;5080935;28;20055;-61
2020/12/23 09:25:13;;;;;;;14.15;7.03;;;11.70;99.90;;;;;;5074315;28;20020;-60
2020/12/23 09:27:39;;;;;;;10.57;6.28;;;11.70;99.90;;;;;;5076858;28;20020;-60
2020/12/23 09:30:06;;;;;;;9.88;7.10;;;11.80;99.90;;;;;;5078611;28;20515;-60
2020/12/23 09:32:31;;;;;;;13.65;7.40;;;11.80;99.90;;;;;;5076515;28;20487;-61
2020/12/23 09:35:17;;;;;;;14.85;7.95;;;11.80;99.90;;;;;;5074099;28;20033;-61
2020/12/23 09:37:43;;;;;;;10.10;6.40;;;11.90;99.90;;;;;;5077804;28;20036;-59
2020/12/23 09:40:11;;;;;;;10.88;6.68;;;11.90;99.90;;;;;;5080721;28;20144;-62
2020/12/23 09:42:37;;;;;;;14.63;7.32;;;12.00;99.90;;;;;;5074567;28;20042;-63
2020/12/23 09:45:03;;;;;;;14.57;8.07;;;12.10;99.90;;;;;;5075427;28;20039;-61
2020/12/23 09:47:29;;;;;;;15.65;7.85;;;12.20;99.90;;;;;;5074897;28;20457;-62
2020/12/23 09:49:54;;;;;;;13.95;7.85;;;12.20;99.90;;;;;;5076494;28;20024;-62
2020/12/23 09:52:20;;;;;;;13.18;7.65;;;12.20;99.90;;;;;;5070223;28;20024;-62
2020/12/23 09:54:45;;;;;;;30.23;8.13;;;12.20;99.90;;;;;;5073079;28;20039;-62
2020/12/23 09:57:11;;;;;;;17.65;7.85;;;12.20;99.90;;;;;;5071919;28;20033;-62
2020/12/23 09:59:37;;;;;;;12.77;6.93;;;12.30;99.90;;;;;;5081493;28;20693;-61
2020/12/23 10:02:02;;;;;;;9.80;5.68;;;12.40;99.90;;;;;;5071472;28;20115;-62
2020/12/23 10:04:28;;;;;;;20.35;8.30;;;12.40;99.90;;;;;;5070889;28;20085;-61
2020/12/23 10:06:53;;;;;;;12.75;7.50;;;12.30;99.90;;;;;;5074172;28;20042;-60
2020/12/23 10:09:19;;;;;;;17.30;7.60;;;12.30;99.90;;;;;;5073663;28;20043;-62
2020/12/23 10:11:44;;;;;;;15.52;7.70;;;12.30;99.90;;;;;;5070550;28;20021;-61
2020/12/23 10:14:10;;;;;;;11.55;7.72;;;12.30;99.90;;;;;;5070665;28;20575;-62
2020/12/23 10:16:35;;;;;;;15.20;8.13;;;12.30;99.90;;;;;;5074224;28;20066;-59
2020/12/23 10:19:03;;;;;;;16.50;8.05;;;12.30;99.90;;;;;;5082519;28;20106;-63
2020/12/23 10:21:28;;;;;;;11.52;7.53;;;12.30;99.90;;;;;;5078558;28;20035;-60
2020/12/23 10:23:54;;;;;;;12.48;6.65;;;12.30;99.90;;;;;;5077346;28;20032;-61
2020/12/23 10:26:20;;;;;;;12.05;6.97;;;12.40;99.90;;;;;;5070909;28;20033;-61
2020/12/23 10:28:46;;;;;;;14.43;8.48;;;12.40;99.90;;;;;;5076247;28;20032;-59
2020/12/23 10:31:12;;;;;;;10.45;6.68;;;12.50;99.90;;;;;;5071846;28;20078;-59
2020/12/23 10:33:38;;;;;;;11.45;6.78;;;12.40;99.90;;;;;;5075907;28;20021;-61
2020/12/23 10:36:07;;;;;;;12.80;5.97;;;12.40;99.90;;;;;;5073333;28;20039;-58
2020/12/23 10:38:33;;;;;;;18.85;6.13;;;12.40;99.90;;;;;;5071691;28;20033;-60
2020/12/23 10:40:59;;;;;;;10.02;5.70;;;12.30;99.90;;;;;;5079850;28;20034;-59
2020/12/23 10:43:25;;;;;;;10.80;5.15;;;12.30;99.90;;;;;;5071367;28;20157;-62
2020/12/23 10:45:50;;;;;;;9.80;5.57;;;12.20;99.90;;;;;;5079606;28;20024;-59
2020/12/23 10:48:17;;;;;;;15.95;6.28;;;12.20;99.90;;;;;;5085535;28;20028;-61
2020/12/23 10:50:43;;;;;;;8.52;5.07;;;12.20;99.90;;;;;;5083722;28;20398;-61
2020/12/23 10:53:09;;;;;;;10.25;5.55;;;12.20;99.90;;;;;;5071066;28;20487;-59
2020/12/23 10:55:35;;;;;;;9.63;5.50;;;12.20;99.90;;;;;;5088005;28;20028;-60
2020/12/23 10:58:00;;;;;;;9.63;5.43;;;12.20;99.90;;;;;;5091985;28;20381;-61
2020/12/23 11:00:26;;;;;;;9.80;6.32;;;12.20;99.90;;;;;;5079483;28;20686;-59
2020/12/23 11:02:53;;;;;;;9.50;5.63;;;12.20;99.90;;;;;;5079942;28;20030;-59
2020/12/23 11:05:22;;;;;;;7.95;5.13;;;12.20;99.90;;;;;;5089249;28;20075;-60
2020/12/23 11:07:49;;;;;;;7.65;4.15;;;12.20;99.90;;;;;;5105570;28;20024;-60
2020/12/23 11:10:16;;;;;;;6.75;4.75;;;12.20;99.90;;;;;;5079980;28;20034;-61
2020/12/23 11:12:42;;;;;;;7.72;4.82;;;12.20;99.90;;;;;;5077278;28;20487;-60
2020/12/23 11:15:08;;;;;;;9.30;4.63;;;12.20;99.90;;;;;;5079122;28;20118;-59
2020/12/23 11:17:33;;;;;;;10.30;5.03;;;12.10;99.90;;;;;;5077432;28;20277;-61
2020/12/23 11:19:59;;;;;;;8.25;3.83;;;12.10;99.90;;;;;;5096380;28;20085;-61
2020/12/23 11:22:25;;;;;;;10.90;4.38;;;12.10;99.90;;;;;;5095398;28;20039;-61
2020/12/23 11:24:51;;;;;;;5.18;3.25;;;12.10;99.90;;;;;;5104719;28;20619;-58
2020/12/23 11:27:20;;;;;;;7.18;3.80;;;12.10;99.90;;;;;;5074706;28;20077;-60
2020/12/23 11:29:46;;;;;;;4.90;3.10;;;12.10;99.90;;;;;;5088417;28;20055;-60
2020/12/23 11:32:13;;;;;;;8.55;3.25;;;12.10;99.90;;;;;;5101179;28;20058;-60
2020/12/23 11:34:40;;;;;;;9.85;2.92;;;12.10;99.90;;;;;;5088555;28;20021;-60
2020/12/23 11:37:06;;;;;;;11.10;2.15;;;12.10;99.90;;;;;;5071359;28;20056;-59
2020/12/23 11:39:33;;;;;;;8.25;2.28;;;12.10;99.90;;;;;;5068696;28;20023;-59
2020/12/23 11:42:02;;;;;;;5.30;2.80;;;12.10;99.90;;;;;;5094063;28;20513;-59
2020/12/23 11:44:28;;;;;;;4.75;2.70;;;12.10;99.90;;;;;;5096638;28;20024;-61
2020/12/23 11:46:57;;;;;;;5.43;2.67;;;12.10;99.90;;;;;;5101626;28;20742;-61
2020/12/23 11:49:28;;;;;;;3.70;2.30;;;12.10;99.90;;;;;;5079299;28;20036;-60
2020/12/23 11:51:54;;;;;;;6.85;2.30;;;12.10;99.90;;;;;;5099001;28;20103;-59
2020/12/23 11:54:20;;;;;;;8.73;3.13;;;12.10;99.90;;;;;;5075542;28;20023;-59
2020/12/23 11:56:46;;;;;;;6.47;3.05;;;12.10;99.90;;;;;;5082546;28;20590;-60
2020/12/23 11:59:13;;;;;;;6.53;3.33;;;12.10;99.90;;;;;;5105762;28;20016;-60
2020/12/23 12:01:47;;;;;;;9.63;3.45;;;12.10;99.90;;;;;;5093258;28;20500;-61
2020/12/23 12:04:13;;;;;;;;;;;12.10;99.90;;;;;;5099263;28;20057;-59
2020/12/23 12:06:39;;;;;;;5.60;3.63;;;12.10;99.90;;;;;;5100425;28;19911;-60
2020/12/23 12:09:07;;;;;;;7.13;3.53;;;12.10;99.90;;;;;;5087376;28;20098;-60
2020/12/23 12:11:34;;;;;;;11.88;4.68;;;12.10;99.90;;;;;;5068186;28;20021;-60
2020/12/23 12:13:59;;;;;;;9.40;5.00;;;12.20;99.90;;;;;;5070880;28;20028;-59
2020/12/23 12:16:25;;;;;;;7.50;4.68;;;12.10;99.90;;;;;;5069515;28;20522;-60
2020/12/23 12:18:52;;;;;;;16.80;4.72;;;12.10;99.90;;;;;;5062759;28;20027;-60
2020/12/23 12:21:18;;;;;;;10.43;4.93;;;12.20;99.90;;;;;;5073718;28;20067;-59
2020/12/23 12:23:44;;;;;;;13.27;5.28;;;12.20;99.90;;;;;;5085181;28;20474;-60
2020/12/23 12:26:10;;;;;;;11.93;6.47;;;12.20;99.90;;;;;;5061563;28;20032;-60
2020/12/23 12:28:36;;;;;;;14.70;6.40;;;12.20;99.90;;;;;;5074665;28;20020;-60
2020/12/23 12:31:02;;;;;;;13.13;6.78;;;12.10;99.90;;;;;;5053163;28;20036;-60
2020/12/23 12:33:28;;;;;;;12.52;7.13;;;12.20;99.90;;;;;;5068450;28;20115;-58
2020/12/23 12:35:54;;;;;;;13.07;6.18;;;12.20;99.90;;;;;;5077717;28;20111;-59
2020/12/23 12:38:20;;;;;;;9.05;6.18;;;12.20;99.90;;;;;;5061619;28;20035;-61